Latest Weather Observations for Canterbury

IDN60901

Issued at 9:21 pm EST Tuesday 18 June 2024 (issued every 10 minutes, with the page automatically refreshed every 10 minutes)

About weather observations | Map of Sydney area stations | Latest observations for Sydney area | Other Formats
Station Details ID: 066194 Name: CANTERBURY RACECOURSE AWS Lat: -33.91 Lon: 151.11 Height: 3.0 m
Data from the previous 72 hours. | See also: Recent months at Canterbury
Date/Time
EST
Temp
°C
App
Temp
°C
Dew
Point
°C
Rel
Hum
%
Delta-T
°C
Wind Press
QNH
hPa
Press
MSL
hPa
Rain since
9am
mm
Dir  Spd
km/h
Gust
km/h
Spd
kts
Gust
kts
18/09:00pm 6.9 4.8 5.7 92 0.5 SW 6 9 3 5 - - 0.0
18/08:30pm 7.8 7.0 6.3 90 0.7 CALM 0 0 0 0 - - 0.0
18/08:00pm 8.6 7.8 6.6 87 0.9 CALM 0 0 0 0 - - 0.0
18/07:30pm 9.4 8.1 7.5 88 0.9 NW 4 9 2 5 - - 0.0
18/07:00pm 10.2 9.2 9.0 92 0.6 S 4 13 2 7 - - 0.0
18/06:30pm 8.6 7.8 6.4 86 1.0 CALM 0 0 0 0 - - 0.0
18/06:00pm 9.8 9.0 6.5 80 1.5 CALM 0 0 0 0 - - 0.0
18/05:30pm 11.3 10.1 6.4 72 2.3 SSE 2 6 1 3 - - 0.0
18/05:00pm 13.2 10.7 6.5 64 3.2 SSE 9 13 5 7 - - 0.0
18/04:30pm 14.1 11.1 6.2 59 3.8 SE 11 17 6 9 - - 0.0
18/04:00pm 15.1 12.5 6.1 55 4.3 SSE 9 15 5 8 - - 0.0
18/03:30pm 15.4 12.4 5.9 53 4.6 SSE 11 17 6 9 - - 0.0
18/03:00pm 16.0 12.9 5.6 50 5.0 SSE 11 19 6 10 - - 0.0
18/02:30pm 16.7 13.5 3.1 40 6.2 WSW 9 15 5 8 - - 0.0
18/02:00pm 16.9 13.6 4.3 43 5.9 W 11 19 6 10 - - 0.0
18/01:30pm 16.2 12.4 3.9 44 5.7 WSW 13 20 7 11 - - 0.0
18/01:00pm 15.8 11.7 4.5 47 5.3 SW 15 20 8 11 - - 0.0
18/12:30pm 15.7 11.8 5.3 50 4.9 WSW 15 22 8 12 - - 0.0
18/12:00pm 15.5 12.1 6.0 53 4.6 SW 13 20 7 11 - - 0.0
18/11:30am 14.9 10.9 5.1 52 4.6 WSW 15 24 8 13 - - 0.0
18/11:00am 14.0 9.5 4.3 52 4.5 SW 17 26 9 14 - - 0.0
18/10:30am 13.4 9.3 4.6 55 4.0 WSW 15 24 8 13 - - 0.0
18/10:00am 12.4 7.9 4.1 57 3.7 WSW 17 26 9 14 - - 0.0
18/09:30am 11.9 7.8 4.4 60 3.4 WSW 15 22 8 12 - - 0.0
18/09:00am 11.0 7.2 3.8 61 3.2 WSW 13 20 7 11 - - 0.0
18/08:30am 10.0 6.2 4.0 66 2.6 SW 13 20 7 11 - - 0.0
18/08:00am 8.5 5.7 5.3 80 1.4 WSW 9 15 5 8 - - 0.0
18/07:30am 4.9 3.4 3.2 89 0.7 CALM 0 0 0 0 - - 0.0
18/07:00am 4.9 3.3 2.6 85 0.9 CALM 0 0 0 0 - - 0.0
18/06:30am 6.1 3.9 3.3 82 1.2 WSW 4 9 2 5 - - 0.0
18/06:00am 6.9 4.3 3.3 78 1.5 WSW 6 9 3 5 - - 0.0
18/05:30am 7.7 5.1 3.4 74 1.8 W 6 9 3 5 - - 0.0
18/05:00am 8.6 5.1 3.6 71 2.2 WSW 11 17 6 9 - - 0.0
18/04:30am 8.7 5.2 3.7 71 2.2 WSW 11 19 6 10 - - 0.0
18/04:00am 8.3 4.9 4.1 75 1.8 SW 11 17 6 9 - - 0.0
18/03:30am 7.5 5.0 4.6 82 1.3 W 7 13 4 7 - - 0.0
18/03:00am 7.3 4.8 5.0 85 1.0 WSW 7 11 4 6 - - 0.0
18/02:30am 6.9 4.6 4.7 86 1.0 WSW 6 9 3 5 - - 0.0
18/02:00am 7.6 5.2 4.4 80 1.4 WSW 6 9 3 5 - - 0.0
18/01:30am 8.3 6.1 5.1 80 1.4 W 6 9 3 5 - - 0.0
18/01:00am 8.6 6.4 5.2 79 1.5 SSW 6 9 3 5 - - 0.0
18/12:30am 9.3 6.9 5.1 75 1.9 W 7 13 4 7 - - 0.0
18/12:00am 9.5 6.8 5.7 77 1.7 WNW 9 13 5 7 - - 0.0
 
Date/Time
EST
Temp
°C
App
Temp
°C
Dew
Point
°C
Rel
Hum
%
Delta-T
°C
Wind Press
QNH
hPa
Press
MSL
hPa
Rain since
9am
mm
Dir  Spd
km/h
Gust
km/h
Spd
kts
Gust
kts
17/11:30pm 9.1 6.9 5.3 77 1.7 WSW 6 7 3 4 - - 0.0
17/11:00pm 10.2 7.4 5.0 70 2.3 WSW 9 13 5 7 - - 0.0
17/10:30pm 10.8 8.0 5.1 68 2.6 WSW 9 11 5 6 - - 0.0
17/10:00pm 11.3 8.5 5.2 66 2.8 WSW 9 13 5 7 - - 0.0
17/09:30pm 11.5 8.8 5.4 66 2.8 WSW 9 13 5 7 - - 0.0
17/09:00pm 11.8 9.3 5.0 63 3.1 SW 7 13 4 7 - - 0.0
17/08:30pm 13.1 10.2 4.5 56 3.9 SW 9 17 5 9 - - 0.0
17/08:00pm 13.0 10.5 4.9 58 3.7 SW 7 13 4 7 - - 0.0
17/07:30pm 13.2 10.0 4.9 57 3.8 SW 11 20 6 11 - - 0.0
17/07:00pm 13.6 9.9 4.7 55 4.1 SW 13 26 7 14 - - 0.0
17/06:30pm 14.1 10.9 4.9 54 4.3 SW 11 19 6 10 - - 0.0
17/06:00pm 14.6 11.9 5.4 54 4.3 SW 9 15 5 8 - - 0.0
17/05:30pm 15.1 11.5 5.0 51 4.7 SW 13 22 7 12 - - 0.0
17/05:00pm 15.3 11.4 5.5 52 4.7 SSW 15 24 8 13 - - 0.0
17/04:30pm 15.8 12.4 6.0 52 4.7 SSW 13 22 7 12 - - 0.0
17/04:00pm 15.7 12.4 6.4 54 4.5 SSW 13 20 7 11 - - 0.0
17/03:30pm 16.1 12.4 6.5 53 4.7 S 15 26 8 14 - - 0.0
17/03:00pm 16.3 12.1 7.3 55 4.5 SSW 19 32 10 17 - - 0.0
17/02:30pm 16.4 12.0 7.3 55 4.5 SSW 20 39 11 21 - - 0.0
17/02:00pm 15.8 11.5 7.8 59 4.0 SSW 20 39 11 21 - - 0.0
17/01:30pm 14.4 9.6 9.0 70 2.7 S 24 39 13 21 - - 0.0
17/01:00pm 16.1 11.3 7.3 56 4.4 SSW 22 39 12 21 - - 0.0
17/12:30pm 16.2 11.7 6.9 54 4.6 SSW 20 35 11 19 - - 0.0
17/12:00pm 15.9 11.0 7.1 56 4.3 S 22 35 12 19 - - 0.0
17/11:30am 15.5 11.8 6.2 54 4.5 SW 15 24 8 13 - - 0.0
17/11:00am 15.2 11.4 6.0 54 4.4 SW 15 24 8 13 - - 0.0
17/10:30am 14.9 10.3 5.7 54 4.4 SW 19 30 10 16 - - 0.0
17/10:00am 14.4 9.7 5.2 54 4.3 SW 19 28 10 15 - - 0.0
17/09:30am 13.7 9.3 4.8 55 4.1 SW 17 26 9 14 - - 0.0
17/09:00am 12.5 8.8 4.2 57 3.8 SW 13 22 7 12 - - 0.0
17/08:30am 11.0 7.2 3.8 61 3.2 WSW 13 26 7 14 - - 0.0
17/08:00am 10.6 6.7 3.6 62 3.1 SW 13 20 7 11 - - 0.0
17/07:30am 10.1 6.2 3.4 63 2.9 WSW 13 20 7 11 - - 0.0
17/07:00am 9.6 6.4 3.1 64 2.8 WSW 9 19 5 10 - - 0.0
17/06:30am 9.3 5.7 3.1 65 2.7 WSW 11 19 6 10 - - 0.0
17/06:00am 9.1 5.5 3.1 66 2.6 WSW 11 17 6 9 - - 0.0
17/05:30am 7.9 4.4 3.4 73 1.9 WSW 11 19 6 10 - - 0.0
17/05:00am 6.4 3.8 3.0 79 1.4 WNW 6 9 3 5 - - 0.0
17/04:30am 6.2 3.6 3.0 80 1.3 WNW 6 9 3 5 - - 0.0
17/04:00am 6.5 3.7 2.9 78 1.5 WNW 7 9 4 5 - - 0.0
17/03:30am 6.4 3.6 3.0 79 1.4 NW 7 11 4 6 - - 0.0
17/03:00am 7.1 4.1 2.2 71 2.0 WNW 7 17 4 9 - - 0.0
17/02:30am 6.6 4.0 3.4 80 1.3 WNW 6 9 3 5 - - 0.0
17/02:00am 5.8 3.2 3.0 82 1.2 WNW 6 9 3 5 - - 0.0
17/01:30am 5.9 4.0 2.7 80 1.3 WNW 2 6 1 3 - - 0.0
17/01:00am 7.6 5.6 2.5 70 2.1 NW 2 6 1 3 - - 0.0
17/12:30am 7.8 5.0 2.9 71 2.1 W 7 13 4 7 - - 0.0
17/12:00am 7.2 4.8 1.9 69 2.2 W 4 7 2 4 - - 0.0
 
Date/Time
EST
Temp
°C
App
Temp
°C
Dew
Point
°C
Rel
Hum
%
Delta-T
°C
Wind Press
QNH
hPa
Press
MSL
hPa
Rain since
9am
mm
Dir  Spd
km/h
Gust
km/h
Spd
kts
Gust
kts
16/11:30pm 8.2 5.2 2.0 65 2.6 WSW 7 15 4 8 - - 0.0
16/11:00pm 8.8 5.4 1.9 62 2.9 SW 9 15 5 8 - - 0.0
16/10:30pm 9.5 6.1 1.7 58 3.2 WSW 9 15 5 8 - - 0.0
16/10:00pm 10.0 6.1 1.4 55 3.6 WSW 11 17 6 9 - - 0.0
16/09:30pm 10.5 6.6 1.3 53 3.8 WSW 11 17 6 9 - - 0.0
16/09:00pm 10.7 6.5 1.5 53 3.9 WSW 13 20 7 11 - - 0.0
16/08:30pm 10.2 6.9 2.3 58 3.4 WSW 9 19 5 10 - - 0.0
16/08:00pm 7.7 5.2 3.6 75 1.8 W 6 9 3 5 - - 0.0
16/07:30pm 8.4 6.9 2.8 68 2.4 CALM 0 6 0 3 - - 0.0
16/07:00pm 9.8 7.1 2.4 60 3.1 W 6 9 3 5 - - 0.0
16/06:30pm 10.9 7.9 2.0 54 3.8 SW 7 11 4 6 - - 0.0
16/06:00pm 10.9 7.9 2.2 55 3.7 WSW 7 13 4 7 - - 0.0
16/05:30pm 11.0 8.0 2.3 55 3.7 WSW 7 11 4 6 - - 0.0
16/05:00pm 13.0 9.8 0.7 43 5.2 WSW 7 13 4 7 - - 0.0
16/04:30pm 14.5 10.4 0.0 37 6.1 WSW 11 19 6 10 - - 0.0
16/04:00pm 15.4 10.5 -0.4 34 6.6 WSW 15 24 8 13 - - 0.0
16/03:30pm 15.7 10.9 -0.1 34 6.7 SW 15 22 8 12 - - 0.0
16/03:00pm 15.8 10.9 -0.4 33 6.8 WSW 15 22 8 12 - - 0.0
16/02:30pm 15.8 10.9 -0.4 33 6.8 SW 15 28 8 15 - - 0.0
16/02:00pm 15.6 10.5 1.0 37 6.3 WSW 17 28 9 15 - - 0.0
16/01:30pm 15.6 11.1 2.1 40 6.0 SW 15 26 8 14 - - 0.0
16/01:00pm 15.2 10.2 1.4 39 6.0 SSW 17 28 9 15 - - 0.0
16/12:30pm 14.7 9.2 1.9 42 5.6 SW 20 32 11 17 - - 0.0
16/12:00pm 14.2 9.3 1.8 43 5.4 SW 17 28 9 15 - - 0.0
16/11:30am 13.7 9.2 2.3 46 5.0 SW 15 30 8 16 - - 0.0
16/11:00am 13.4 9.0 2.9 49 4.7 SW 15 22 8 12 - - 0.0
16/10:30am 12.3 7.1 3.3 54 4.0 SW 20 33 11 18 - - 0.0
16/10:00am 11.9 7.2 3.4 56 3.8 WSW 17 28 9 15 - - 0.0
16/09:30am 11.1 6.5 3.6 60 3.3 SW 17 32 9 17 - - 0.0
16/09:00am 10.1 5.9 3.8 65 2.8 WSW 15 24 8 13 - - 0.8
16/08:30am 9.5 5.7 3.9 68 2.5 WSW 13 20 7 11 - - 0.8
16/08:00am 8.8 5.0 3.8 71 2.2 WSW 13 22 7 12 - - 0.8
16/07:30am 7.3 4.2 3.7 78 1.5 WSW 9 17 5 9 - - 0.8
16/07:00am 7.3 3.9 3.9 79 1.5 WSW 11 17 6 9 - - 0.8
16/06:30am 7.1 4.1 4.1 81 1.3 WSW 9 15 5 8 - - 0.8
16/06:00am 7.5 4.5 4.3 80 1.4 WSW 9 17 5 9 - - 0.8
16/05:30am 7.6 4.7 4.7 82 1.3 WSW 9 17 5 9 - - 0.8
16/05:00am 7.9 4.6 4.7 80 1.4 SW 11 17 6 9 - - 0.8
16/04:30am 7.8 4.5 4.7 81 1.4 WSW 11 19 6 10 - - 0.8
16/04:00am 7.9 5.0 4.8 81 1.4 WSW 9 15 5 8 - - 0.8
16/03:30am 7.9 5.1 5.0 82 1.3 WSW 9 15 5 8 - - 0.8
16/03:00am 8.1 5.3 5.2 82 1.3 WSW 9 13 5 7 - - 0.8
16/02:30am 8.4 5.6 5.3 81 1.4 WSW 9 15 5 8 - - 0.8
16/02:00am 8.9 6.2 5.6 80 1.5 WSW 9 13 5 7 - - 0.8
16/01:30am 9.5 6.4 5.5 76 1.8 WSW 11 17 6 9 - - 0.8
16/01:00am 9.9 6.5 5.9 76 1.8 WSW 13 20 7 11 - - 0.8
16/12:30am 10.2 7.2 6.0 75 1.9 WSW 11 19 6 10 - - 0.8
16/12:00am 10.7 7.7 6.1 73 2.1 WSW 11 17 6 9 - - 0.8
 
Date/Time
EST
Temp
°C
App
Temp
°C
Dew
Point
°C
Rel
Hum
%
Delta-T
°C
Wind Press
QNH
hPa
Press
MSL
hPa
Rain since
9am
mm
Dir  Spd
km/h
Gust
km/h
Spd
kts
Gust
kts
15/11:30pm 11.0 7.7 6.4 73 2.2 SW 13 20 7 11 - - 0.8
15/11:00pm 11.1 7.8 6.6 74 2.1 SW 13 19 7 10 - - 0.8
15/10:30pm 11.2 8.4 7.1 76 2.0 WSW 11 19 6 10 - - 0.8
15/10:00pm 11.4 9.4 7.3 76 2.0 SW 7 13 4 7 - - 0.8
15/09:30pm 11.6 9.3 7.5 76 2.0 WSW 9 17 5 9 - - 0.8

Latest Capital City Observations: Canberra | Sydney | Melbourne | Brisbane | Adelaide | Perth | Hobart | Darwin

Other formats

Comma delimited format used in spreadsheet applications
http://www.bom.gov.au/fwo/IDN60901/IDN60901.94766.axf

JavaScript Object Notation format (JSON) in row-major order
http://www.bom.gov.au/fwo/IDN60901/IDN60901.94766.json

Data quality

Most of these data are generated automatically and are frequently updated. Quality checks on data are not normally performed. It is possible for incorrect values to appear. Refer to information at About Latest Weather Observations and please check the disclaimer before using these data.